Time;durP1;ratioP1;P1;durP2;ratioP2;P2;SDS_P1;SDS_P2;PMS_P1;PMS_P2;Temp;Humidity;BMP_temperature;BMP_pressure;BME280_temperature;BME280_humidity;BME280_pressure;Samples;Min_cycle;Max_cycle;Signal;HPM_P1;HPM_P2
2024/04/03 00:00:02;;;;;;;2.25;0.90;;;;;;;;;;5037212;28;20231;-55
2024/04/03 00:02:27;;;;;;;1.25;0.80;;;;;;;;;;5044170;28;20558;-54
2024/04/03 00:04:52;;;;;;;1.45;0.93;;;;;;;;;;5040772;28;20487;-55
2024/04/03 00:07:18;;;;;;;2.95;0.80;;;;;;;;;;5044608;28;20036;-55
2024/04/03 00:09:43;;;;;;;1.20;0.75;;;;;;;;;;5039164;28;20039;-55
2024/04/03 00:12:09;;;;;;;1.30;1.10;;;;;;;;;;5044364;28;20412;-57
2024/04/03 00:14:34;;;;;;;2.67;1.00;;;;;;;;;;5042296;28;20024;-53
2024/04/03 00:16:59;;;;;;;1.25;0.95;;;;;;;;;;5044012;28;20513;-54
2024/04/03 00:19:25;;;;;;;4.20;0.90;;;;;;;;;;5040402;28;20029;-56
2024/04/03 00:21:50;;;;;;;1.98;0.93;;;;;;;;;;5043931;28;20043;-55
2024/04/03 00:24:16;;;;;;;2.75;0.98;;;;;;;;;;5030621;28;20466;-57
2024/04/03 00:26:41;;;;;;;0.70;0.70;;;;;;;;;;5023990;28;20030;-54
2024/04/03 00:29:06;;;;;;;3.70;0.93;;;;;;;;;;5023724;28;20120;-57
2024/04/03 00:31:32;;;;;;;1.63;0.82;;;;;;;;;;5024176;28;20407;-58
2024/04/03 00:33:57;;;;;;;2.05;1.13;;;;;;;;;;5024343;28;20395;-53
2024/04/03 00:36:22;;;;;;;1.05;0.68;;;;;;;;;;5037082;28;20024;-56
2024/04/03 00:38:48;;;;;;;0.98;0.82;;;;;;;;;;5041719;28;20516;-56
2024/04/03 00:41:13;;;;;;;3.22;0.95;;;;;;;;;;5043608;28;20036;-53
2024/04/03 00:43:39;;;;;;;1.00;0.85;;;;;;;;;;5040381;28;20028;-59
2024/04/03 00:46:05;;;;;;;1.65;1.00;;;;;;;;;;5042548;28;20159;-57
2024/04/03 00:48:31;;;;;;;5.97;3.17;;;;;;;;;;5040579;28;20064;-52
2024/04/03 00:50:57;;;;;;;1.05;0.55;;;;;;;;;;5043078;28;20057;-56
2024/04/03 00:53:23;;;;;;;1.80;1.25;;;;;;;;;;5039452;28;20199;-56
2024/04/03 00:55:48;;;;;;;4.05;1.20;;;;;;;;;;5024344;28;20036;-55
2024/04/03 00:58:14;;;;;;;4.07;1.20;;;;;;;;;;5041708;28;20033;-57
2024/04/03 01:00:39;;;;;;;1.02;0.82;;;;;;;;;;5042371;28;20391;-55
2024/04/03 01:03:05;;;;;;;2.35;0.90;;;;;;;;;;5039953;28;20209;-55
2024/04/03 01:05:30;;;;;;;2.22;1.00;;;;;;;;;;5023598;28;20037;-55
2024/04/03 01:07:56;;;;;;;1.33;1.00;;;;;;;;;;5022868;28;20026;-56
2024/04/03 01:10:21;;;;;;;1.17;0.98;;;;;;;;;;5027123;28;20033;-53
2024/04/03 01:12:47;;;;;;;1.45;0.82;;;;;;;;;;5023444;28;20025;-58
2024/04/03 01:15:12;;;;;;;2.45;0.75;;;;;;;;;;5042490;28;20035;-55
2024/04/03 01:17:37;;;;;;;4.20;0.90;;;;;;;;;;5046910;28;20013;-55
2024/04/03 01:20:03;;;;;;;1.40;0.82;;;;;;;;;;5044725;28;20025;-56
2024/04/03 01:22:28;;;;;;;2.33;1.10;;;;;;;;;;5046847;28;20412;-55
2024/04/03 01:24:53;;;;;;;1.52;0.95;;;;;;;;;;5028306;28;20045;-57
2024/04/03 01:27:19;;;;;;;1.60;0.90;;;;;;;;;;5033086;28;20017;-56
2024/04/03 01:29:45;;;;;;;2.97;1.20;;;;;;;;;;5030187;28;20280;-54
2024/04/03 01:32:11;;;;;;;3.00;0.90;;;;;;;;;;5045632;28;20031;-58
2024/04/03 01:34:36;;;;;;;1.27;0.90;;;;;;;;;;5044688;28;20115;-52
2024/04/03 01:37:01;;;;;;;0.82;0.75;;;;;;;;;;5046755;28;20021;-56
2024/04/03 01:39:29;;;;;;;2.53;1.02;;;;;;;;;;5044354;28;20518;-54
2024/04/03 01:41:54;;;;;;;0.77;0.77;;;;;;;;;;5045349;28;20521;-57
2024/04/03 01:44:19;;;;;;;2.70;1.02;;;;;;;;;;5033014;28;20108;-52
2024/04/03 01:46:44;;;;;;;2.60;0.80;;;;;;;;;;5041782;28;20108;-57
2024/04/03 01:49:10;;;;;;;1.95;1.15;;;;;;;;;;5034181;28;20457;-55
2024/04/03 01:51:35;;;;;;;5.53;1.02;;;;;;;;;;5026653;28;20025;-56
2024/04/03 01:54:00;;;;;;;1.83;1.00;;;;;;;;;;5042369;28;20088;-54
2024/04/03 01:56:25;;;;;;;2.08;1.23;;;;;;;;;;5046278;28;20344;-54
2024/04/03 01:58:51;;;;;;;2.65;0.80;;;;;;;;;;5043958;28;20040;-57
2024/04/03 02:01:16;;;;;;;2.05;1.10;;;;;;;;;;5046623;28;20048;-53
2024/04/03 02:03:41;;;;;;;1.23;0.77;;;;;;;;;;5043855;28;20082;-55
2024/04/03 02:06:07;;;;;;;1.38;1.05;;;;;;;;;;5046147;28;20502;-56
2024/04/03 02:08:32;;;;;;;1.35;1.02;;;;;;;;;;5044131;28;20379;-53
2024/04/03 02:10:57;;;;;;;1.10;0.90;;;;;;;;;;5046105;28;20028;-56
2024/04/03 02:13:22;;;;;;;3.35;1.00;;;;;;;;;;5034727;28;20040;-55
2024/04/03 02:15:54;;;;;;;1.85;1.00;;;;;;;;;;5044741;28;20475;-58
2024/04/03 02:18:20;;;;;;;1.10;0.80;;;;;;;;;;5043912;28;20025;-58
2024/04/03 02:20:45;;;;;;;3.17;0.90;;;;;;;;;;5044329;28;20036;-57
2024/04/03 02:23:11;;;;;;;2.65;1.20;;;;;;;;;;5042055;28;20494;-58
2024/04/03 02:25:37;;;;;;;2.65;1.10;;;;;;;;;;5025940;28;20018;-59
2024/04/03 02:28:02;;;;;;;1.23;0.85;;;;;;;;;;5024898;28;20055;-53
2024/04/03 02:30:28;;;;;;;1.30;1.00;;;;;;;;;;5042698;28;20468;-55
2024/04/03 02:32:54;;;;;;;2.80;0.80;;;;;;;;;;5043510;28;20096;-59
2024/04/03 02:35:19;;;;;;;0.95;0.88;;;;;;;;;;5025947;28;20112;-55
2024/04/03 02:37:44;;;;;;;1.70;1.00;;;;;;;;;;5037639;28;20029;-54
2024/04/03 02:40:10;;;;;;;3.45;1.10;;;;;;;;;;5025292;28;20393;-53
2024/04/03 02:42:35;;;;;;;1.48;1.00;;;;;;;;;;5025668;28;20032;-58
2024/04/03 02:45:00;;;;;;;1.88;0.80;;;;;;;;;;5025410;28;20025;-54
2024/04/03 02:47:26;;;;;;;2.10;1.00;;;;;;;;;;5025431;28;20013;-58
2024/04/03 02:49:51;;;;;;;1.83;0.90;;;;;;;;;;5040780;28;20451;-56
2024/04/03 02:52:16;;;;;;;4.95;1.20;;;;;;;;;;5045171;28;20047;-55
2024/04/03 02:54:41;;;;;;;3.67;1.20;;;;;;;;;;5038652;28;20047;-52
2024/04/03 02:57:07;;;;;;;1.45;0.98;;;;;;;;;;5024805;28;20071;-58
2024/04/03 02:59:34;;;;;;;3.35;1.20;;;;;;;;;;5038077;28;20119;-54
2024/04/03 03:02:00;;;;;;;2.88;1.00;;;;;;;;;;5027252;28;20090;-55
2024/04/03 03:04:25;;;;;;;2.08;0.90;;;;;;;;;;5042981;28;20025;-58
2024/04/03 03:06:50;;;;;;;1.42;1.00;;;;;;;;;;5044961;28;20271;-52
2024/04/03 03:09:17;;;;;;;1.42;1.00;;;;;;;;;;5042955;28;20485;-57
2024/04/03 03:11:43;;;;;;;3.85;1.10;;;;;;;;;;5044596;28;20017;-56
2024/04/03 03:14:08;;;;;;;2.65;1.20;;;;;;;;;;5031482;28;20129;-54
2024/04/03 03:16:33;;;;;;;2.35;1.17;;;;;;;;;;5021970;28;20399;-54
2024/04/03 03:18:59;;;;;;;1.60;1.42;;;;;;;;;;5029146;28;20551;-58
2024/04/03 03:21:24;;;;;;;1.40;1.20;;;;;;;;;;5034606;28;20033;-58
2024/04/03 03:23:49;;;;;;;4.03;1.58;;;;;;;;;;5023798;28;20050;-55
2024/04/03 03:26:14;;;;;;;1.80;1.23;;;;;;;;;;5025432;28;20052;-57
2024/04/03 03:28:40;;;;;;;1.98;1.17;;;;;;;;;;5030329;28;20399;-57
2024/04/03 03:31:05;;;;;;;2.60;0.98;;;;;;;;;;5026621;28;20064;-51
2024/04/03 03:33:30;;;;;;;2.60;1.38;;;;;;;;;;5024380;28;20475;-53
2024/04/03 03:35:56;;;;;;;1.55;1.05;;;;;;;;;;5024649;28;20387;-58
2024/04/03 03:38:22;;;;;;;1.70;1.00;;;;;;;;;;5027011;28;20036;-56
2024/04/03 03:40:48;;;;;;;2.40;1.30;;;;;;;;;;5043171;28;20029;-55
2024/04/03 03:43:13;;;;;;;3.42;1.40;;;;;;;;;;5040236;28;20518;-53
2024/04/03 03:45:46;;;;;;;1.92;1.40;;;;;;;;;;5024663;28;20080;-57
2024/04/03 03:48:11;;;;;;;2.03;1.35;;;;;;;;;;5026398;28;20112;-57
2024/04/03 03:53:21;;;;;;;2.97;1.70;;;;;;;;;;5036199;28;20024;-57
2024/04/03 03:55:46;;;;;;;4.93;1.60;;;;;;;;;;5044389;28;20387;-51
2024/04/03 03:58:11;;;;;;;3.53;1.58;;;;;;;;;;5041865;28;21909;-53
2024/04/03 04:00:36;;;;;;;2.85;1.63;;;;;;;;;;5044040;28;20029;-57
2024/04/03 04:03:02;;;;;;;4.65;1.70;;;;;;;;;;5040097;28;20029;-58
2024/04/03 04:05:27;;;;;;;2.50;1.45;;;;;;;;;;5044291;28;20036;-54
2024/04/03 04:07:52;;;;;;;3.45;1.42;;;;;;;;;;5039384;28;20037;-54
2024/04/03 04:10:18;;;;;;;5.85;1.35;;;;;;;;;;5024611;28;20059;-59
2024/04/03 04:12:43;;;;;;;4.40;1.40;;;;;;;;;;5023354;28;20486;-53
2024/04/03 04:15:08;;;;;;;2.92;1.60;;;;;;;;;;5042482;28;20103;-56
2024/04/03 04:17:34;;;;;;;2.45;1.38;;;;;;;;;;5024027;28;20056;-59
2024/04/03 04:19:59;;;;;;;6.20;2.45;;;;;;;;;;5039625;28;20025;-53
2024/04/03 04:22:24;;;;;;;4.25;2.38;;;;;;;;;;5043842;28;20056;-53
2024/04/03 04:24:50;;;;;;;4.28;1.63;;;;;;;;;;5041751;28;20131;-56
2024/04/03 04:27:16;;;;;;;3.78;1.58;;;;;;;;;;5041418;28;20076;-55
2024/04/03 04:29:41;;;;;;;3.25;1.55;;;;;;;;;;5027762;28;20120;-54
2024/04/03 04:32:07;;;;;;;3.47;1.35;;;;;;;;;;5042538;28;20021;-57
2024/04/03 04:34:33;;;;;;;3.63;1.25;;;;;;;;;;5029074;28;20022;-57
2024/04/03 04:36:58;;;;;;;2.63;1.35;;;;;;;;;;5038415;28;20074;-54
2024/04/03 04:39:23;;;;;;;3.42;1.35;;;;;;;;;;5033085;28;20369;-55
2024/04/03 04:41:49;;;;;;;3.03;1.15;;;;;;;;;;5034649;28;20547;-57
2024/04/03 04:44:15;;;;;;;3.80;1.77;;;;;;;;;;5030306;28;20021;-55
2024/04/03 04:46:40;;;;;;;2.65;1.02;;;;;;;;;;5037918;28;20180;-55
2024/04/03 04:49:06;;;;;;;5.50;1.30;;;;;;;;;;5032847;28;20033;-52
2024/04/03 04:51:31;;;;;;;2.83;1.30;;;;;;;;;;5044050;28;20533;-56
2024/04/03 04:53:57;;;;;;;1.85;1.20;;;;;;;;;;5037603;28;20026;-54
2024/04/03 04:56:22;;;;;;;6.00;1.40;;;;;;;;;;5027543;28;20072;-55
2024/04/03 04:58:47;;;;;;;1.98;1.45;;;;;;;;;;5032037;28;20052;-54
2024/04/03 05:01:13;;;;;;;2.78;1.10;;;;;;;;;;5030329;28;20112;-55
2024/04/03 05:03:38;;;;;;;2.80;1.30;;;;;;;;;;5045920;28;20029;-53
2024/04/03 05:06:03;;;;;;;4.80;1.50;;;;;;;;;;5047348;28;20107;-51
2024/04/03 05:08:30;;;;;;;1.80;1.10;;;;;;;;;;5044915;28;20033;-57
2024/04/03 05:10:56;;;;;;;3.65;1.20;;;;;;;;;;5043322;28;20025;-58
2024/04/03 05:13:22;;;;;;;5.65;1.42;;;;;;;;;;5043375;28;20049;-55
2024/04/03 05:15:48;;;;;;;3.50;1.10;;;;;;;;;;5031713;28;20115;-53
2024/04/03 05:18:13;;;;;;;2.75;0.90;;;;;;;;;;5029354;28;20029;-58
2024/04/03 05:20:39;;;;;;;1.63;1.15;;;;;;;;;;5047100;28;20119;-57
2024/04/03 05:23:05;;;;;;;3.65;1.38;;;;;;;;;;5035696;28;20024;-55
2024/04/03 05:25:30;;;;;;;2.17;1.45;;;;;;;;;;5046626;28;20441;-54
2024/04/03 05:27:56;;;;;;;4.35;1.27;;;;;;;;;;5044889;28;20025;-56
2024/04/03 05:30:21;;;;;;;5.70;1.35;;;;;;;;;;5026614;28;20067;-52
2024/04/03 05:32:46;;;;;;;2.13;1.40;;;;;;;;;;5034753;28;20806;-54
2024/04/03 05:35:12;;;;;;;3.28;1.42;;;;;;;;;;5026870;28;20361;-57
2024/04/03 05:37:38;;;;;;;3.08;1.60;;;;;;;;;;5026238;28;20773;-55
2024/04/03 05:40:06;;;;;;;3.15;1.30;;;;;;;;;;5043571;28;20036;-53
2024/04/03 05:42:31;;;;;;;2.50;1.10;;;;;;;;;;5046407;28;20028;-54
2024/04/03 05:44:57;;;;;;;4.45;1.40;;;;;;;;;;5037459;28;20261;-53
2024/04/03 05:47:22;;;;;;;6.20;1.30;;;;;;;;;;5046013;28;20507;-53
2024/04/03 05:49:51;;;;;;;5.45;1.85;;;;;;;;;;5027966;28;20037;-50
2024/04/03 05:52:17;;;;;;;1.90;1.10;;;;;;;;;;5040068;28;20398;-52
2024/04/03 05:54:42;;;;;;;1.25;0.90;;;;;;;;;;5040453;28;20029;-51
2024/04/03 05:57:08;;;;;;;5.50;0.95;;;;;;;;;;5029925;28;20419;-50
2024/04/03 05:59:33;;;;;;;2.60;0.80;;;;;;;;;;5041337;28;20372;-48
2024/04/03 06:01:59;;;;;;;4.43;1.08;;;;;;;;;;5035221;28;20029;-51
2024/04/03 06:04:24;;;;;;;1.50;0.60;;;;;;;;;;5033739;28;20120;-52
2024/04/03 06:06:50;;;;;;;3.90;1.00;;;;;;;;;;5035223;28;20106;-52
2024/04/03 06:09:15;;;;;;;5.88;0.80;;;;;;;;;;5036237;28;20037;-52
2024/04/03 06:11:41;;;;;;;0.82;0.70;;;;;;;;;;5044094;28;20089;-56
2024/04/03 06:14:06;;;;;;;2.03;0.75;;;;;;;;;;5042104;28;20491;-53
2024/04/03 06:18:23;;;;;;;2.33;0.80;;;;;;;;;;5068645;27;20394;-54
2024/04/03 06:20:50;;;;;;;2.33;0.80;;;;;;;;;;5053433;28;20037;-53
2024/04/03 06:23:15;;;;;;;3.50;0.90;;;;;;;;;;5046516;28;20037;-54
2024/04/03 06:25:41;;;;;;;2.38;1.30;;;;;;;;;;5053550;27;20086;-54
2024/04/03 06:28:06;;;;;;;1.25;0.80;;;;;;;;;;5059262;28;20433;-52
2024/04/03 06:30:32;;;;;;;1.55;1.13;;;;;;;;;;5051532;28;20033;-53
2024/04/03 06:32:57;;;;;;;3.40;1.60;;;;;;;;;;5054244;28;20420;-50
2024/04/03 06:35:24;;;;;;;4.30;1.40;;;;;;;;;;5063991;28;20132;-52
2024/04/03 06:37:49;;;;;;;4.22;1.35;;;;;;;;;;5049625;28;20037;-50
2024/04/03 06:40:17;;;;;;;4.32;0.80;;;;;;;;;;5045627;28;20025;-52
2024/04/03 06:42:42;;;;;;;1.05;0.75;;;;;;;;;;5052326;28;20029;-49
2024/04/03 06:45:08;;;;;;;0.82;0.80;;;;;;;;;;5050688;28;20050;-52
2024/04/03 06:47:33;;;;;;;4.15;1.98;;;;;;;;;;5048295;28;20037;-50
2024/04/03 06:49:58;;;;;;;1.85;0.95;;;;;;;;;;5040707;28;20025;-50
2024/04/03 06:52:24;;;;;;;2.22;1.00;;;;;;;;;;5040555;28;20032;-48
2024/04/03 06:54:49;;;;;;;5.60;2.70;;;;;;;;;;5056856;28;20021;-49
2024/04/03 06:57:14;;;;;;;5.40;2.35;;;;;;;;;;5059725;28;20099;-49
2024/04/03 06:59:40;;;;;;;2.72;1.35;;;;;;;;;;5058566;28;20036;-51
2024/04/03 07:02:05;;;;;;;1.15;0.80;;;;;;;;;;5057634;28;20032;-47
2024/04/03 07:04:30;;;;;;;6.18;2.55;;;;;;;;;;5050198;28;20500;-47
2024/04/03 07:06:56;;;;;;;8.68;3.63;;;;;;;;;;5048239;28;20032;-50
2024/04/03 07:09:21;;;;;;;4.05;1.00;;;;;;;;;;5050375;28;20086;-50
2024/04/03 07:11:46;;;;;;;3.15;0.85;;;;;;;;;;5057922;28;20437;-50
2024/04/03 07:14:12;;;;;;;7.13;1.20;;;;;;;;;;5051064;28;20056;-54
2024/04/03 07:16:37;;;;;;;2.63;1.40;;;;;;;;;;5057547;28;20569;-49
2024/04/03 07:19:02;;;;;;;3.85;1.08;;;;;;;;;;5052189;28;20074;-48
2024/04/03 07:21:29;;;;;;;1.45;0.80;;;;;;;;;;5064548;28;20040;-52
2024/04/03 07:23:55;;;;;;;0.73;0.70;;;;;;;;;;5055038;28;20029;-50
2024/04/03 07:26:23;;;;;;;1.58;0.95;;;;;;;;;;5051283;28;20021;-48
2024/04/03 07:28:48;;;;;;;2.30;0.65;;;;;;;;;;5042415;28;20053;-49
2024/04/03 07:31:14;;;;;;;0.70;0.50;;;;;;;;;;5041672;28;20052;-52
2024/04/03 07:33:39;;;;;;;1.45;0.60;;;;;;;;;;5042484;28;20060;-47
2024/04/03 07:36:04;;;;;;;1.15;1.00;;;;;;;;;;5040005;28;20064;-51
2024/04/03 07:38:30;;;;;;;3.20;1.38;;;;;;;;;;5058089;28;20032;-49
2024/04/03 07:40:55;;;;;;;2.53;0.90;;;;;;;;;;5041908;28;20033;-49
2024/04/03 07:43:21;;;;;;;3.92;0.77;;;;;;;;;;5036180;28;20064;-50
2024/04/03 07:45:46;;;;;;;6.30;1.17;;;;;;;;;;5036204;28;20032;-53
2024/04/03 07:48:11;;;;;;;1.48;0.70;;;;;;;;;;5038802;28;20051;-52
2024/04/03 07:50:38;;;;;;;3.92;0.57;;;;;;;;;;5039803;28;20061;-56
2024/04/03 07:53:04;;;;;;;3.88;1.70;;;;;;;;;;5036061;28;20067;-49
2024/04/03 07:55:30;;;;;;;2.15;0.88;;;;;;;;;;5038533;28;20057;-54
2024/04/03 07:57:55;;;;;;;2.88;0.90;;;;;;;;;;5027755;28;20113;-53
2024/04/03 08:00:20;;;;;;;1.05;0.50;;;;;;;;;;5041015;28;20087;-50
2024/04/03 08:02:45;;;;;;;2.72;1.00;;;;;;;;;;5027871;28;20492;-52
2024/04/03 08:05:11;;;;;;;2.22;1.00;;;;;;;;;;5043416;28;20115;-51
2024/04/03 08:07:37;;;;;;;3.20;0.80;;;;;;;;;;5033056;28;20477;-51
2024/04/03 08:10:03;;;;;;;4.45;0.85;;;;;;;;;;5037250;28;20032;-51
2024/04/03 08:12:29;;;;;;;1.20;0.60;;;;;;;;;;5034493;28;20023;-47
2024/04/03 08:14:55;;;;;;;3.55;0.80;;;;;;;;;;5039771;28;20487;-51
2024/04/03 08:17:21;;;;;;;1.77;0.40;;;;;;;;;;5042253;28;20512;-50
2024/04/03 08:19:49;;;;;;;0.93;0.63;;;;;;;;;;5033559;28;20037;-49
2024/04/03 08:22:14;;;;;;;2.58;0.50;;;;;;;;;;5042596;28;20742;-50
2024/04/03 08:24:40;;;;;;;2.00;0.70;;;;;;;;;;5036421;28;20243;-46
2024/04/03 08:27:05;;;;;;;0.82;0.60;;;;;;;;;;5035225;28;20319;-51
2024/04/03 08:29:37;;;;;;;3.17;0.98;;;;;;;;;;5030797;28;20063;-49
2024/04/03 08:32:02;;;;;;;3.05;0.63;;;;;;;;;;5026823;28;20489;-52
2024/04/03 08:34:27;;;;;;;1.85;0.65;;;;;;;;;;5032578;28;20435;-51
2024/04/03 08:36:53;;;;;;;2.72;0.52;;;;;;;;;;5026199;28;21006;-52
2024/04/03 08:39:18;;;;;;;3.13;0.47;;;;;;;;;;5030363;28;20378;-53
2024/04/03 08:41:44;;;;;;;2.53;0.90;;;;;;;;;;5044632;28;20545;-50
2024/04/03 08:44:09;;;;;;;1.65;0.60;;;;;;;;;;5038713;28;20532;-53
2024/04/03 08:46:35;;;;;;;1.05;0.50;;;;;;;;;;5039326;28;20564;-49
2024/04/03 08:49:02;;;;;;;0.75;0.60;;;;;;;;;;5036509;28;20493;-46
2024/04/03 08:51:29;;;;;;;3.58;0.80;;;;;;;;;;5037271;28;20553;-47
2024/04/03 08:54:01;;;;;;;3.55;1.08;;;;;;;;;;5032887;28;20037;-47
2024/04/03 08:56:26;;;;;;;1.05;0.75;;;;;;;;;;5042051;28;20470;-48
2024/04/03 08:58:53;;;;;;;3.03;1.40;;;;;;;;;;5035046;28;20052;-48
2024/04/03 09:01:19;;;;;;;3.17;1.30;;;;;;;;;;5034018;28;20052;-53
2024/04/03 09:03:45;;;;;;;1.08;0.40;;;;;;;;;;5038806;28;20555;-57
2024/04/03 09:06:11;;;;;;;5.45;2.75;;;;;;;;;;5030814;28;20026;-52
2024/04/03 09:08:40;;;;;;;0.90;0.55;;;;;;;;;;5039946;28;20025;-54
2024/04/03 09:11:05;;;;;;;1.25;0.50;;;;;;;;;;5064643;28;20036;-47
2024/04/03 09:13:31;;;;;;;1.45;0.43;;;;;;;;;;5034772;28;20029;-47
2024/04/03 09:15:56;;;;;;;2.33;0.47;;;;;;;;;;5030994;28;20028;-52
2024/04/03 09:18:21;;;;;;;1.40;0.37;;;;;;;;;;5035476;28;20028;-51
2024/04/03 09:20:50;;;;;;;1.40;0.95;;;;;;;;;;5040466;28;20693;-47
2024/04/03 09:23:17;;;;;;;2.35;0.40;;;;;;;;;;5047457;28;20079;-50
2024/04/03 09:25:42;;;;;;;1.10;0.30;;;;;;;;;;5050522;28;20025;-49
2024/04/03 09:28:09;;;;;;;0.68;0.38;;;;;;;;;;5034420;28;20060;-51
2024/04/03 09:30:38;;;;;;;2.88;0.60;;;;;;;;;;5038165;28;20029;-48
2024/04/03 09:33:04;;;;;;;2.42;0.65;;;;;;;;;;5029941;28;20025;-53
2024/04/03 09:35:33;;;;;;;1.08;0.50;;;;;;;;;;5036541;28;20029;-52
2024/04/03 09:37:58;;;;;;;;;;;;;;;;;;5036773;28;20097;-52
2024/04/03 09:40:24;;;;;;;3.50;0.35;;;;;;;;;;5039411;28;19992;-53
2024/04/03 09:42:54;;;;;;;1.02;0.30;;;;;;;;;;5064469;28;20500;-50
2024/04/03 09:45:20;;;;;;;0.80;0.40;;;;;;;;;;5030045;28;20033;-49
2024/04/03 09:47:48;;;;;;;0.45;0.38;;;;;;;;;;5029595;28;20029;-52
2024/04/03 09:50:14;;;;;;;0.88;0.35;;;;;;;;;;5040645;28;20028;-51
2024/04/03 09:52:40;;;;;;;2.28;0.63;;;;;;;;;;5038081;28;20017;-49
2024/04/03 09:55:06;;;;;;;1.00;0.60;;;;;;;;;;5033927;28;20472;-47
2024/04/03 09:57:31;;;;;;;1.30;0.52;;;;;;;;;;5036400;28;20067;-53
2024/04/03 09:59:59;;;;;;;0.65;0.40;;;;;;;;;;5027835;28;20587;-48
2024/04/03 10:02:25;;;;;;;1.25;0.50;;;;;;;;;;5040290;28;20033;-52
2024/04/03 10:04:50;;;;;;;0.32;0.20;;;;;;;;;;5032635;28;20040;-49
2024/04/03 10:07:16;;;;;;;1.40;0.40;;;;;;;;;;5043393;28;20320;-48
2024/04/03 10:09:42;;;;;;;3.28;0.45;;;;;;;;;;5033649;28;20254;-49
2024/04/03 10:12:14;;;;;;;0.50;0.40;;;;;;;;;;5031067;28;20435;-49
2024/04/03 10:14:40;;;;;;;0.90;0.40;;;;;;;;;;5038366;28;20112;-47
2024/04/03 10:17:13;;;;;;;1.43;0.40;;;;;;;;;;5029748;28;20176;-53
2024/04/03 10:19:40;;;;;;;3.20;0.45;;;;;;;;;;5030892;28;20670;-49
2024/04/03 10:22:05;;;;;;;2.17;0.52;;;;;;;;;;5035096;28;20025;-50
2024/04/03 10:24:31;;;;;;;1.58;0.47;;;;;;;;;;5040984;28;20075;-47
2024/04/03 10:26:56;;;;;;;1.27;0.50;;;;;;;;;;5038443;28;20030;-47
2024/04/03 10:29:22;;;;;;;1.65;0.55;;;;;;;;;;5025658;28;20201;-47
2024/04/03 10:31:47;;;;;;;1.30;0.45;;;;;;;;;;5032541;28;20055;-46
2024/04/03 10:34:22;;;;;;;1.58;0.30;;;;;;;;;;5030937;28;20029;-46
2024/04/03 10:36:47;;;;;;;2.50;0.90;;;;;;;;;;5034648;28;20119;-48
2024/04/03 10:39:13;;;;;;;3.15;1.40;;;;;;;;;;5034989;28;20112;-52
2024/04/03 10:41:39;;;;;;;3.15;0.95;;;;;;;;;;5029830;28;20036;-51
2024/04/03 10:44:05;;;;;;;1.70;0.80;;;;;;;;;;5037235;28;20040;-52
2024/04/03 10:46:31;;;;;;;4.65;1.15;;;;;;;;;;5036047;28;20033;-48
2024/04/03 10:48:56;;;;;;;2.95;0.70;;;;;;;;;;5030819;28;20087;-49
2024/04/03 10:51:22;;;;;;;1.85;0.70;;;;;;;;;;5029757;28;20099;-47
2024/04/03 10:53:48;;;;;;;2.40;0.82;;;;;;;;;;5038896;28;20056;-50
2024/04/03 10:56:15;;;;;;;4.78;0.90;;;;;;;;;;5041652;28;20032;-47
2024/04/03 10:58:43;;;;;;;3.28;1.48;;;;;;;;;;5033775;28;20025;-48
2024/04/03 11:01:09;;;;;;;6.00;1.47;;;;;;;;;;5029915;28;20022;-52
2024/04/03 11:03:37;;;;;;;2.58;0.85;;;;;;;;;;5039092;28;20491;-51
2024/04/03 11:06:03;;;;;;;2.50;0.88;;;;;;;;;;5038423;28;20075;-46
2024/04/03 11:08:28;;;;;;;4.22;1.00;;;;;;;;;;5038562;28;20028;-52
2024/04/03 11:11:09;;;;;;;3.28;1.20;;;;;;;;;;5032859;28;20049;-50
2024/04/03 11:13:35;;;;;;;6.35;1.20;;;;;;;;;;5030092;28;20049;-52
2024/04/03 11:16:00;;;;;;;14.95;1.23;;;;;;;;;;5037716;28;20472;-51
2024/04/03 11:18:26;;;;;;;9.25;1.10;;;;;;;;;;5041755;28;20097;-50
2024/04/03 11:20:52;;;;;;;6.00;1.05;;;;;;;;;;5065058;28;20057;-51
2024/04/03 11:23:17;;;;;;;3.17;0.60;;;;;;;;;;5042319;28;20587;-52
2024/04/03 11:25:42;;;;;;;4.75;0.95;;;;;;;;;;5034990;28;20463;-49
2024/04/03 11:28:08;;;;;;;5.15;0.73;;;;;;;;;;5043712;28;20021;-48
2024/04/03 11:30:37;;;;;;;9.27;1.35;;;;;;;;;;5042983;28;20373;-50
2024/04/03 11:33:02;;;;;;;7.22;1.40;;;;;;;;;;5035480;28;20660;-51
2024/04/03 11:35:28;;;;;;;2.67;1.30;;;;;;;;;;5038641;28;20464;-51
2024/04/03 11:37:54;;;;;;;4.20;1.10;;;;;;;;;;5035388;28;20041;-51
2024/04/03 11:40:19;;;;;;;5.30;1.05;;;;;;;;;;5035647;28;20028;-49
2024/04/03 11:42:44;;;;;;;9.93;1.58;;;;;;;;;;5045006;28;20107;-50
2024/04/03 11:45:10;;;;;;;3.47;1.23;;;;;;;;;;5044062;28;20397;-52
2024/04/03 11:47:35;;;;;;;1.90;0.80;;;;;;;;;;5036095;28;20025;-54
2024/04/03 11:50:01;;;;;;;3.40;1.10;;;;;;;;;;5032265;28;20717;-53
2024/04/03 11:52:27;;;;;;;5.53;0.80;;;;;;;;;;5029554;28;20053;-50
2024/04/03 11:54:52;;;;;;;2.30;0.70;;;;;;;;;;5037786;28;20448;-49
2024/04/03 11:57:17;;;;;;;5.82;1.00;;;;;;;;;;5035576;28;20060;-49
2024/04/03 11:59:43;;;;;;;3.97;0.68;;;;;;;;;;5038554;28;20038;-49
2024/04/03 12:02:08;;;;;;;4.80;1.03;;;;;;;;;;5049286;28;20024;-52
2024/04/03 12:04:33;;;;;;;3.37;0.60;;;;;;;;;;5038662;28;20621;-48
2024/04/03 12:06:59;;;;;;;2.75;0.73;;;;;;;;;;5039826;28;20377;-45
2024/04/03 12:09:24;;;;;;;2.83;0.90;;;;;;;;;;5042545;28;20033;-49
2024/04/03 12:11:50;;;;;;;3.85;0.90;;;;;;;;;;5039184;28;20495;-48
2024/04/03 12:14:15;;;;;;;6.13;1.05;;;;;;;;;;5030843;28;20017;-49
2024/04/03 12:16:40;;;;;;;4.90;0.73;;;;;;;;;;5032210;28;20052;-46
2024/04/03 12:21:49;;;;;;;2.80;0.82;;;;;;;;;;5040363;28;20335;-49
2024/04/03 12:24:15;;;;;;;3.53;0.63;;;;;;;;;;5026846;28;20026;-50
2024/04/03 12:26:41;;;;;;;4.05;0.90;;;;;;;;;;5035246;28;20265;-50
2024/04/03 12:29:06;;;;;;;4.10;0.80;;;;;;;;;;5035760;28;20100;-50
2024/04/03 12:31:32;;;;;;;2.92;0.75;;;;;;;;;;5038834;28;20115;-48
2024/04/03 12:33:58;;;;;;;3.13;0.80;;;;;;;;;;5037812;28;20016;-50
2024/04/03 12:36:23;;;;;;;2.90;0.70;;;;;;;;;;5036493;28;20021;-49
2024/04/03 12:38:49;;;;;;;7.65;1.17;;;;;;;;;;5038267;28;20082;-51
2024/04/03 12:41:14;;;;;;;1.52;0.75;;;;;;;;;;5041045;28;20021;-48
2024/04/03 12:43:40;;;;;;;2.97;0.93;;;;;;;;;;5034202;28;20017;-50
2024/04/03 12:46:05;;;;;;;2.15;0.80;;;;;;;;;;5042595;28;20401;-53
2024/04/03 12:48:30;;;;;;;4.60;1.08;;;;;;;;;;5033293;28;20029;-48
2024/04/03 12:50:56;;;;;;;3.90;0.95;;;;;;;;;;5039107;28;20493;-50
2024/04/03 12:53:22;;;;;;;3.58;0.93;;;;;;;;;;5035003;28;20111;-51
2024/04/03 12:55:48;;;;;;;10.65;2.13;;;;;;;;;;5036228;28;20120;-52
2024/04/03 12:58:13;;;;;;;4.65;1.83;;;;;;;;;;5038813;28;20462;-52
2024/04/03 13:00:38;;;;;;;3.13;0.95;;;;;;;;;;5038982;28;20032;-48
2024/04/03 13:03:04;;;;;;;6.13;1.00;;;;;;;;;;5037641;28;20021;-49
2024/04/03 13:05:29;;;;;;;3.42;0.70;;;;;;;;;;5033907;28;20271;-49
2024/04/03 13:07:55;;;;;;;5.97;1.45;;;;;;;;;;5034295;28;20086;-48
2024/04/03 13:10:21;;;;;;;8.13;1.02;;;;;;;;;;5039820;28;20025;-48
2024/04/03 13:12:46;;;;;;;4.03;0.88;;;;;;;;;;5035874;28;20039;-51
2024/04/03 13:15:11;;;;;;;5.33;1.67;;;;;;;;;;5036189;28;20465;-50
2024/04/03 13:17:36;;;;;;;5.10;1.00;;;;;;;;;;5039935;28;20302;-52
2024/04/03 13:20:03;;;;;;;5.40;1.00;;;;;;;;;;5035705;28;20052;-52
2024/04/03 13:22:32;;;;;;;4.32;0.85;;;;;;;;;;5036682;28;20033;-51
2024/04/03 13:24:58;;;;;;;;;;;;;;;;;;5040100;28;20028;-53
2024/04/03 13:27:23;;;;;;;10.17;1.80;;;;;;;;;;5029327;28;20304;-46
2024/04/03 13:29:49;;;;;;;5.00;1.20;;;;;;;;;;5032353;28;20029;-50
2024/04/03 13:32:14;;;;;;;6.00;1.92;;;;;;;;;;5032938;28;20038;-47
2024/04/03 13:34:40;;;;;;;5.22;0.90;;;;;;;;;;5035518;28;20421;-47
2024/04/03 13:37:06;;;;;;;6.60;1.35;;;;;;;;;;5040119;28;20039;-48
2024/04/03 13:39:31;;;;;;;5.30;1.67;;;;;;;;;;5037685;28;20020;-48
2024/04/03 13:41:59;;;;;;;6.33;1.83;;;;;;;;;;5038643;28;20021;-49
2024/04/03 13:44:24;;;;;;;8.63;1.35;;;;;;;;;;5038990;28;20269;-48
2024/04/03 13:46:49;;;;;;;9.23;1.43;;;;;;;;;;5038283;28;20222;-48
2024/04/03 13:49:16;;;;;;;6.57;1.30;;;;;;;;;;5033456;28;20285;-48
2024/04/03 13:51:42;;;;;;;7.93;2.70;;;;;;;;;;5037315;28;20253;-49
2024/04/03 13:54:09;;;;;;;4.47;1.77;;;;;;;;;;5036699;28;20037;-51
2024/04/03 13:56:34;;;;;;;11.90;1.45;;;;;;;;;;5041142;28;20139;-50
2024/04/03 13:59:00;;;;;;;6.13;1.17;;;;;;;;;;5049122;28;20596;-50
2024/04/03 14:01:25;;;;;;;3.90;0.80;;;;;;;;;;5034348;28;20379;-48
2024/04/03 14:03:51;;;;;;;14.98;1.40;;;;;;;;;;5037871;28;20585;-47
2024/04/03 14:06:16;;;;;;;5.10;0.80;;;;;;;;;;5036103;28;20175;-50
2024/04/03 14:08:42;;;;;;;4.57;0.68;;;;;;;;;;5038723;28;20025;-50
2024/04/03 14:11:08;;;;;;;7.43;1.40;;;;;;;;;;5038208;28;20021;-48
2024/04/03 14:13:33;;;;;;;12.25;6.13;;;;;;;;;;5028455;28;20025;-51
2024/04/03 14:15:59;;;;;;;10.85;6.28;;;;;;;;;;5031449;28;20030;-53
2024/04/03 14:18:24;;;;;;;5.80;1.87;;;;;;;;;;5034258;28;20029;-52
2024/04/03 14:20:49;;;;;;;3.50;1.60;;;;;;;;;;5027401;28;20266;-50
2024/04/03 14:23:15;;;;;;;7.85;2.80;;;;;;;;;;5011525;28;20086;-49
2024/04/03 14:25:43;;;;;;;5.65;1.92;;;;;;;;;;5036925;28;20422;-50
2024/04/03 14:28:09;;;;;;;7.28;2.08;;;;;;;;;;5029721;28;20024;-52
2024/04/03 14:30:36;;;;;;;3.45;1.30;;;;;;;;;;5029370;28;20044;-48
2024/04/03 14:33:02;;;;;;;9.77;1.35;;;;;;;;;;5036634;28;20429;-47
2024/04/03 14:35:28;;;;;;;6.03;1.30;;;;;;;;;;5027658;28;20029;-47
2024/04/03 14:37:56;;;;;;;10.13;1.40;;;;;;;;;;5041922;28;20026;-53
2024/04/03 14:40:21;;;;;;;6.60;1.40;;;;;;;;;;5027613;28;20032;-51